Time;durP1;ratioP1;P1;durP2;ratioP2;P2;SDS_P1;SDS_P2;PMS_P1;PMS_P2;Temp;Humidity;BMP_temperature;BMP_pressure;BME280_temperature;BME280_humidity;BME280_pressure;Samples;Min_cycle;Max_cycle;Signal;HPM_P1;HPM_P2
2022/12/20 00:00:51;;;;;;;39.60;16.43;;;;;;;;;;5111054;28;20233;-41
2022/12/20 00:03:22;;;;;;;31.63;13.90;;;;;;;;;;5110969;28;20210;-41
2022/12/20 00:05:49;;;;;;;32.87;14.87;;;;;;;;;;5111479;28;20681;-44
2022/12/20 00:08:16;;;;;;;33.67;15.97;;;;;;;;;;5110924;28;20208;-43
2022/12/20 00:10:44;;;;;;;36.57;15.07;;;;;;;;;;5111157;28;20583;-41
2022/12/20 00:13:12;;;;;;;33.60;14.43;;;;;;;;;;5110812;28;20657;-41
2022/12/20 00:15:39;;;;;;;40.77;18.60;;;;;;;;;;5111082;28;20259;-44
2022/12/20 00:18:06;;;;;;;38.47;17.37;;;;;;;;;;5110672;28;20198;-43
2022/12/20 00:20:34;;;;;;;37.93;15.87;;;;;;;;;;5110720;28;20299;-41
2022/12/20 00:23:01;;;;;;;32.37;16.07;;;;;;;;;;5110659;28;20194;-41
2022/12/20 00:25:28;;;;;;;38.33;15.37;;;;;;;;;;5110589;28;20198;-40
2022/12/20 00:27:55;;;;;;;41.13;15.33;;;;;;;;;;5110524;28;20666;-44
2022/12/20 00:30:22;;;;;;;41.57;17.03;;;;;;;;;;5108644;28;20202;-41
2022/12/20 00:32:50;;;;;;;35.77;15.13;;;;;;;;;;5096556;28;20213;-42
2022/12/20 00:35:16;;;;;;;31.70;14.67;;;;;;;;;;5097023;28;20199;-41
2022/12/20 00:37:44;;;;;;;35.30;15.73;;;;;;;;;;5096112;28;20206;-43
2022/12/20 00:40:11;;;;;;;38.80;19.00;;;;;;;;;;5096953;28;20352;-41
2022/12/20 00:42:38;;;;;;;33.27;17.27;;;;;;;;;;5097052;28;20217;-41
2022/12/20 00:45:05;;;;;;;29.20;15.43;;;;;;;;;;5096943;28;20635;-41
2022/12/20 00:47:32;;;;;;;29.80;15.13;;;;;;;;;;5096910;28;20210;-41
2022/12/20 00:49:59;;;;;;;31.80;15.03;;;;;;;;;;5095697;28;20234;-42
2022/12/20 00:52:27;;;;;;;33.73;15.47;;;;;;;;;;5079312;28;20202;-41
2022/12/20 00:54:54;;;;;;;38.77;14.93;;;;;;;;;;5096491;28;20206;-44
2022/12/20 00:57:21;;;;;;;39.40;15.90;;;;;;;;;;5095524;28;20248;-41
2022/12/20 00:59:47;;;;;;;32.27;15.50;;;;;;;;;;5096245;28;20257;-40
2022/12/20 01:02:15;;;;;;;46.80;18.03;;;;;;;;;;5096573;28;20213;-41
2022/12/20 01:04:42;;;;;;;28.57;15.43;;;;;;;;;;5096260;28;20212;-42
2022/12/20 01:07:10;;;;;;;33.93;16.63;;;;;;;;;;5096303;28;20203;-43
2022/12/20 01:09:37;;;;;;;34.20;16.23;;;;;;;;;;5096291;28;20206;-43
2022/12/20 01:12:05;;;;;;;32.33;15.90;;;;;;;;;;5096213;28;20210;-41
2022/12/20 01:14:32;;;;;;;41.27;16.50;;;;;;;;;;5096076;28;20199;-41
2022/12/20 01:16:59;;;;;;;40.03;16.43;;;;;;;;;;5096288;28;20210;-44
2022/12/20 01:19:26;;;;;;;38.97;16.27;;;;;;;;;;5095847;28;20667;-42
2022/12/20 01:21:53;;;;;;;37.43;15.60;;;;;;;;;;5095258;28;20205;-42
2022/12/20 01:24:20;;;;;;;34.60;16.03;;;;;;;;;;5095753;28;20224;-43
2022/12/20 01:26:47;;;;;;;39.40;17.33;;;;;;;;;;5095806;28;20704;-41
2022/12/20 01:29:14;;;;;;;61.30;38.77;;;;;;;;;;5096030;28;20207;-42
2022/12/20 01:31:41;;;;;;;37.00;18.87;;;;;;;;;;5095935;28;20534;-41
2022/12/20 01:34:09;;;;;;;46.63;20.10;;;;;;;;;;5095122;28;20206;-42
2022/12/20 01:36:37;;;;;;;55.13;20.17;;;;;;;;;;5095670;28;20225;-42
2022/12/20 01:39:07;;;;;;;45.10;18.00;;;;;;;;;;5095671;28;20206;-41
2022/12/20 01:41:37;;;;;;;40.90;16.60;;;;;;;;;;5095837;28;20214;-44
2022/12/20 01:44:16;;;;;;;44.43;16.20;;;;;;;;;;5094708;28;20209;-43
2022/12/20 01:46:45;;;;;;;35.23;16.83;;;;;;;;;;5094608;28;20558;-41
2022/12/20 01:49:23;;;;;;;35.73;16.07;;;;;;;;;;5095820;28;20261;-41
2022/12/20 01:51:54;;;;;;;54.30;23.33;;;;;;;;;;5094807;28;20193;-42
2022/12/20 01:54:35;;;;;;;36.00;19.27;;;;;;;;;;5094487;28;20236;-41
2022/12/20 01:57:08;;;;;;;44.23;20.17;;;;;;;;;;5095460;28;20202;-42
2022/12/20 01:59:37;;;;;;;35.90;16.97;;;;;;;;;;5077840;28;20197;-42
2022/12/20 02:02:08;;;;;;;40.50;17.77;;;;;;;;;;5094327;28;20198;-42
2022/12/20 02:04:36;;;;;;;34.70;15.07;;;;;;;;;;5094266;28;20187;-42
2022/12/20 02:07:04;;;;;;;46.13;18.53;;;;;;;;;;5094460;28;20547;-41
2022/12/20 02:09:32;;;;;;;30.50;15.93;;;;;;;;;;5094115;28;20206;-42
2022/12/20 02:12:03;;;;;;;40.30;17.80;;;;;;;;;;5094100;28;20673;-43
2022/12/20 02:14:54;;;;;;;39.37;17.63;;;;;;;;;;5077901;28;20225;-42
2022/12/20 02:17:24;;;;;;;51.43;26.07;;;;;;;;;;5094037;28;20639;-41
2022/12/20 02:20:10;;;;;;;35.13;17.13;;;;;;;;;;5093935;28;20315;-42
2022/12/20 02:22:51;;;;;;;33.47;15.27;;;;;;;;;;5094053;28;20199;-43
2022/12/20 02:25:41;;;;;;;32.33;16.27;;;;;;;;;;5093903;28;20205;-41
2022/12/20 02:28:30;;;;;;;36.80;16.17;;;;;;;;;;5093968;28;20203;-42
2022/12/20 02:31:03;;;;;;;34.77;15.03;;;;;;;;;;5094782;28;20256;-42
2022/12/20 02:33:30;;;;;;;34.60;16.47;;;;;;;;;;5077114;28;20515;-42
2022/12/20 02:35:57;;;;;;;36.87;17.63;;;;;;;;;;5094529;28;20256;-42
2022/12/20 02:38:30;;;;;;;48.53;21.13;;;;;;;;;;5093854;28;20203;-43
2022/12/20 02:41:05;;;;;;;42.37;22.83;;;;;;;;;;5093875;28;20218;-41
2022/12/20 02:46:22;;;;;;;39.67;17.83;;;;;;;;;;5093932;28;20206;-43
2022/12/20 02:48:51;;;;;;;35.37;16.70;;;;;;;;;;5093759;28;20191;-43
2022/12/20 02:51:19;;;;;;;42.53;18.90;;;;;;;;;;5077052;28;20226;-42
2022/12/20 02:53:47;;;;;;;36.57;18.40;;;;;;;;;;5093105;28;20631;-42
2022/12/20 02:56:30;;;;;;;31.17;15.27;;;;;;;;;;5093641;28;20287;-43
2022/12/20 02:59:00;;;;;;;39.97;16.63;;;;;;;;;;5077038;28;20198;-42
2022/12/20 03:01:30;;;;;;;33.37;15.47;;;;;;;;;;5093438;28;20226;-43
2022/12/20 03:03:58;;;;;;;34.17;15.70;;;;;;;;;;5076717;28;20210;-41
2022/12/20 03:06:26;;;;;;;38.83;17.77;;;;;;;;;;5076560;28;20203;-44
2022/12/20 03:08:53;;;;;;;37.00;17.07;;;;;;;;;;5093193;28;20256;-41
2022/12/20 03:11:24;;;;;;;39.70;17.53;;;;;;;;;;5094149;28;20205;-44
2022/12/20 03:13:51;;;;;;;43.20;17.83;;;;;;;;;;5094379;28;20203;-41
2022/12/20 03:16:19;;;;;;;43.03;18.20;;;;;;;;;;5093438;28;20233;-42
2022/12/20 03:18:46;;;;;;;40.83;17.33;;;;;;;;;;5093495;28;20190;-41
2022/12/20 03:21:14;;;;;;;41.40;17.77;;;;;;;;;;5093812;28;20241;-43
2022/12/20 03:23:41;;;;;;;39.97;16.57;;;;;;;;;;5093954;28;20643;-42
2022/12/20 03:26:08;;;;;;;40.50;16.83;;;;;;;;;;5094114;28;20284;-42
2022/12/20 03:28:41;;;;;;;42.37;21.00;;;;;;;;;;5093031;28;20194;-42
2022/12/20 03:31:11;;;;;;;40.17;17.70;;;;;;;;;;5093076;28;20206;-41
2022/12/20 03:33:44;;;;;;;40.17;17.93;;;;;;;;;;5092999;28;20542;-42
2022/12/20 03:36:11;;;;;;;44.23;17.13;;;;;;;;;;5092910;28;20654;-42
2022/12/20 03:38:40;;;;;;;41.13;18.43;;;;;;;;;;5093234;28;20259;-43
2022/12/20 03:41:07;;;;;;;39.67;17.30;;;;;;;;;;5093079;28;20222;-42
2022/12/20 03:43:34;;;;;;;37.43;17.60;;;;;;;;;;5093145;28;20696;-42
2022/12/20 03:46:02;;;;;;;39.83;16.70;;;;;;;;;;5092895;28;20218;-43
2022/12/20 03:48:33;;;;;;;41.73;17.83;;;;;;;;;;5092814;28;20268;-43
2022/12/20 03:51:00;;;;;;;52.73;19.20;;;;;;;;;;5093685;28;20267;-41
2022/12/20 03:53:29;;;;;;;48.97;24.30;;;;;;;;;;5092755;28;20271;-45
2022/12/20 03:55:56;;;;;;;43.67;19.10;;;;;;;;;;5093061;28;20226;-42
2022/12/20 03:58:24;;;;;;;40.37;17.00;;;;;;;;;;5093043;28;20210;-43
2022/12/20 04:00:51;;;;;;;47.40;18.23;;;;;;;;;;5092531;28;20663;-42
2022/12/20 04:03:40;;;;;;;41.43;18.47;;;;;;;;;;5092695;28;20209;-42
2022/12/20 04:06:07;;;;;;;37.87;16.33;;;;;;;;;;5094499;28;20198;-42
2022/12/20 04:08:34;;;;;;;47.67;18.93;;;;;;;;;;5096588;28;20203;-43
2022/12/20 04:11:18;;;;;;;50.53;19.60;;;;;;;;;;5096751;28;20202;-42
2022/12/20 04:14:01;;;;;;;39.77;16.90;;;;;;;;;;5096372;28;20689;-42
2022/12/20 04:16:29;;;;;;;49.37;19.87;;;;;;;;;;5096653;28;20207;-42
2022/12/20 04:18:56;;;;;;;47.67;20.40;;;;;;;;;;5097301;28;20215;-41
2022/12/20 04:21:28;;;;;;;46.73;17.40;;;;;;;;;;5096276;28;20222;-42
2022/12/20 04:23:58;;;;;;;36.77;15.37;;;;;;;;;;5096180;28;20611;-42
2022/12/20 04:26:34;;;;;;;42.97;16.90;;;;;;;;;;5096544;28;20187;-43
2022/12/20 04:29:03;;;;;;;44.33;18.70;;;;;;;;;;5096229;28;20245;-42
2022/12/20 04:31:30;;;;;;;48.47;18.33;;;;;;;;;;5090516;28;20195;-42
2022/12/20 04:33:59;;;;;;;45.23;18.57;;;;;;;;;;5085038;28;20214;-44
2022/12/20 04:36:27;;;;;;;50.70;19.63;;;;;;;;;;5080182;28;20661;-44
2022/12/20 04:38:56;;;;;;;44.40;17.03;;;;;;;;;;5084822;28;20207;-41
2022/12/20 04:41:23;;;;;;;54.20;19.57;;;;;;;;;;5089900;28;20222;-42
2022/12/20 04:43:57;;;;;;;45.33;19.60;;;;;;;;;;5082953;28;20194;-43
2022/12/20 04:46:32;;;;;;;50.37;19.43;;;;;;;;;;5095627;28;20284;-43
2022/12/20 04:49:01;;;;;;;48.10;18.87;;;;;;;;;;5093598;28;20264;-42
2022/12/20 04:51:30;;;;;;;45.93;19.20;;;;;;;;;;5095308;28;20297;-43
2022/12/20 04:53:58;;;;;;;51.50;19.23;;;;;;;;;;5095727;28;20206;-43
2022/12/20 04:56:48;;;;;;;50.77;19.03;;;;;;;;;;5096332;28;20195;-43
2022/12/20 04:59:19;;;;;;;49.50;19.73;;;;;;;;;;5087720;28;20523;-42
2022/12/20 05:01:49;;;;;;;57.33;22.67;;;;;;;;;;5084442;28;20230;-43
2022/12/20 05:04:34;;;;;;;51.37;19.83;;;;;;;;;;5082674;28;20227;-42
2022/12/20 05:07:04;;;;;;;49.60;19.47;;;;;;;;;;5074468;28;20682;-43
2022/12/20 05:09:32;;;;;;;48.20;19.83;;;;;;;;;;5075101;28;20226;-42
2022/12/20 05:11:59;;;;;;;49.63;18.67;;;;;;;;;;5079506;28;20223;-42
2022/12/20 05:14:26;;;;;;;53.70;19.40;;;;;;;;;;5085547;28;20219;-41
2022/12/20 05:16:53;;;;;;;51.17;18.30;;;;;;;;;;5073729;28;20245;-45
2022/12/20 05:19:20;;;;;;;47.97;18.33;;;;;;;;;;5074117;28;20236;-41
2022/12/20 05:27:28;;;;;;;47.27;17.97;;;;;;;;;;5090856;28;20231;-41
2022/12/20 05:29:55;;;;;;;50.63;18.97;;;;;;;;;;5093958;28;20276;-43
2022/12/20 05:32:22;;;;;;;45.97;18.90;;;;;;;;;;5093995;28;20258;-41
2022/12/20 05:34:52;;;;;;;50.13;18.70;;;;;;;;;;5094063;28;20543;-41
2022/12/20 05:37:19;;;;;;;47.33;18.50;;;;;;;;;;5073784;28;20743;-41
2022/12/20 05:39:46;;;;;;;46.10;18.83;;;;;;;;;;5090389;28;20671;-41
2022/12/20 05:42:19;;;;;;;54.77;19.87;;;;;;;;;;5073601;28;20345;-41
2022/12/20 05:44:50;;;;;;;48.30;20.00;;;;;;;;;;5073598;28;20223;-41
2022/12/20 05:47:18;;;;;;;49.97;18.90;;;;;;;;;;5088165;28;20222;-46
2022/12/20 05:49:45;;;;;;;46.20;18.10;;;;;;;;;;5092667;28;20656;-47
2022/12/20 05:52:12;;;;;;;48.13;19.33;;;;;;;;;;5094143;28;20252;-40
2022/12/20 05:54:40;;;;;;;53.90;19.90;;;;;;;;;;5093535;28;20219;-40
2022/12/20 05:57:14;;;;;;;45.27;17.47;;;;;;;;;;5093587;28;20249;-43
2022/12/20 05:59:42;;;;;;;49.17;19.07;;;;;;;;;;5093224;28;20226;-40
2022/12/20 06:02:14;;;;;;;46.37;18.40;;;;;;;;;;5092889;28;20242;-42
2022/12/20 06:04:43;;;;;;;45.63;18.53;;;;;;;;;;5092202;28;20234;-42
2022/12/20 06:07:16;;;;;;;50.30;19.87;;;;;;;;;;5093433;28;20215;-42
2022/12/20 06:09:46;;;;;;;53.03;19.23;;;;;;;;;;5093261;28;20256;-43
2022/12/20 06:12:16;;;;;;;54.83;19.70;;;;;;;;;;5091885;28;20234;-43
2022/12/20 06:14:45;;;;;;;55.53;20.53;;;;;;;;;;5092998;28;20199;-41
2022/12/20 06:17:12;;;;;;;49.63;20.03;;;;;;;;;;5093907;28;20289;-41
2022/12/20 06:19:42;;;;;;;44.60;18.00;;;;;;;;;;5093326;28;20230;-42
2022/12/20 06:22:12;;;;;;;60.10;20.33;;;;;;;;;;5093515;28;20222;-42
2022/12/20 06:24:47;;;;;;;52.37;18.73;;;;;;;;;;5092468;28;20198;-41
2022/12/20 06:27:17;;;;;;;50.63;20.07;;;;;;;;;;5093929;28;20214;-45
2022/12/20 06:29:53;;;;;;;45.40;18.03;;;;;;;;;;5091860;28;20183;-42
2022/12/20 06:32:24;;;;;;;54.13;20.93;;;;;;;;;;5092373;28;20620;-43
2022/12/20 06:34:52;;;;;;;46.87;19.53;;;;;;;;;;5076563;28;20229;-40
2022/12/20 06:37:20;;;;;;;53.23;19.80;;;;;;;;;;5093615;28;20247;-41
2022/12/20 06:39:48;;;;;;;58.37;22.83;;;;;;;;;;5093591;28;20202;-41
2022/12/20 06:42:15;;;;;;;52.57;20.13;;;;;;;;;;5094610;28;20222;-41
2022/12/20 06:44:44;;;;;;;56.67;22.93;;;;;;;;;;5077488;28;20565;-43
2022/12/20 06:47:10;;;;;;;53.57;20.43;;;;;;;;;;5093646;28;20215;-41
2022/12/20 06:49:38;;;;;;;55.83;19.60;;;;;;;;;;5093524;28;20237;-43
2022/12/20 06:52:12;;;;;;;47.87;17.67;;;;;;;;;;5092836;28;20211;-46
2022/12/20 06:54:48;;;;;;;48.27;18.67;;;;;;;;;;5091947;28;20194;-41
2022/12/20 06:57:15;;;;;;;56.77;18.87;;;;;;;;;;5092780;28;20526;-42
2022/12/20 06:59:46;;;;;;;55.53;20.87;;;;;;;;;;5093267;28;20199;-44
2022/12/20 07:02:12;;;;;;;59.03;20.50;;;;;;;;;;5094092;28;20244;-41
2022/12/20 07:04:40;;;;;;;57.23;20.97;;;;;;;;;;5094380;28;20213;-41
2022/12/20 07:07:07;;;;;;;89.73;27.07;;;;;;;;;;5093529;28;20203;-41
2022/12/20 07:09:34;;;;;;;55.37;19.27;;;;;;;;;;5093503;28;20569;-41
2022/12/20 07:12:01;;;;;;;57.23;20.70;;;;;;;;;;5093259;28;20286;-41
2022/12/20 07:14:28;;;;;;;51.60;19.57;;;;;;;;;;5094055;28;20202;-41
2022/12/20 07:16:55;;;;;;;64.30;20.53;;;;;;;;;;5093716;28;20222;-42
2022/12/20 07:19:22;;;;;;;69.03;23.50;;;;;;;;;;5093929;28;20238;-41
2022/12/20 07:21:51;;;;;;;59.17;20.53;;;;;;;;;;5093711;28;20671;-44
2022/12/20 07:24:19;;;;;;;63.80;20.97;;;;;;;;;;5092944;28;20206;-44
2022/12/20 07:26:45;;;;;;;63.47;20.23;;;;;;;;;;5093789;28;20199;-42
2022/12/20 07:29:13;;;;;;;62.30;21.33;;;;;;;;;;5093264;28;20199;-42
2022/12/20 07:31:41;;;;;;;57.70;20.50;;;;;;;;;;5093656;28;20202;-42
2022/12/20 07:34:10;;;;;;;55.03;20.07;;;;;;;;;;5093918;28;20505;-42
2022/12/20 07:36:37;;;;;;;52.80;19.00;;;;;;;;;;5092140;28;20203;-43
2022/12/20 07:39:04;;;;;;;59.63;21.60;;;;;;;;;;5093490;28;20213;-43
2022/12/20 07:41:31;;;;;;;58.03;19.47;;;;;;;;;;5095601;28;20218;-42
2022/12/20 07:43:59;;;;;;;63.50;21.80;;;;;;;;;;5097875;28;20650;-44
2022/12/20 07:46:26;;;;;;;56.17;20.07;;;;;;;;;;5098082;28;20264;-46
2022/12/20 07:48:54;;;;;;;55.87;19.97;;;;;;;;;;5097610;28;20206;-42
2022/12/20 07:51:25;;;;;;;67.70;21.73;;;;;;;;;;5097700;28;20199;-41
2022/12/20 07:54:02;;;;;;;60.93;19.30;;;;;;;;;;5097734;28;20211;-43
2022/12/20 07:56:32;;;;;;;64.90;20.60;;;;;;;;;;5097216;28;20210;-43
2022/12/20 07:59:08;;;;;;;65.10;23.47;;;;;;;;;;5095781;28;20194;-43
2022/12/20 08:01:36;;;;;;;60.07;20.60;;;;;;;;;;5096132;28;20250;-46
2022/12/20 08:04:07;;;;;;;64.33;22.50;;;;;;;;;;5095897;28;20706;-42
2022/12/20 08:06:36;;;;;;;69.57;24.83;;;;;;;;;;5096355;28;20207;-43
2022/12/20 08:09:04;;;;;;;65.03;23.27;;;;;;;;;;5097245;28;20209;-41
2022/12/20 08:11:34;;;;;;;64.13;21.13;;;;;;;;;;5097624;28;20320;-42
2022/12/20 08:14:02;;;;;;;60.97;21.13;;;;;;;;;;5096554;28;20236;-42
2022/12/20 08:16:29;;;;;;;63.40;21.97;;;;;;;;;;5096378;28;20203;-44
2022/12/20 08:18:57;;;;;;;59.50;21.20;;;;;;;;;;5097276;28;20203;-43
2022/12/20 08:21:24;;;;;;;92.40;31.53;;;;;;;;;;5097349;28;20226;-43
2022/12/20 08:23:51;;;;;;;76.90;28.53;;;;;;;;;;5096218;28;20639;-42
2022/12/20 08:26:18;;;;;;;129.23;61.80;;;;;;;;;;5097165;28;20211;-42
2022/12/20 08:28:46;;;;;;;131.20;63.70;;;;;;;;;;5095895;28;20213;-46
2022/12/20 08:31:13;;;;;;;105.60;42.20;;;;;;;;;;5096627;28;20199;-43
2022/12/20 08:33:41;;;;;;;285.77;139.23;;;;;;;;;;5095868;28;20202;-45
2022/12/20 08:36:11;;;;;;;128.77;64.50;;;;;;;;;;5095087;28;20202;-44
2022/12/20 08:38:39;;;;;;;96.70;46.23;;;;;;;;;;5096569;28;20199;-43
2022/12/20 08:41:11;;;;;;;124.90;55.10;;;;;;;;;;5096751;28;20223;-45
2022/12/20 08:43:39;;;;;;;130.60;51.57;;;;;;;;;;5096826;28;20183;-45
2022/12/20 08:46:08;;;;;;;105.20;43.03;;;;;;;;;;5095075;28;20701;-44
2022/12/20 08:48:35;;;;;;;137.57;53.30;;;;;;;;;;5095098;28;20207;-48
2022/12/20 08:51:05;;;;;;;91.87;41.03;;;;;;;;;;5095191;28;20272;-44
2022/12/20 08:53:33;;;;;;;91.60;33.10;;;;;;;;;;5094717;28;20260;-44
2022/12/20 08:56:12;;;;;;;79.87;32.07;;;;;;;;;;5096828;28;20211;-43
2022/12/20 08:58:41;;;;;;;75.67;30.10;;;;;;;;;;5096351;28;20526;-43
2022/12/20 09:01:13;;;;;;;74.60;28.33;;;;;;;;;;5094734;28;20218;-46
2022/12/20 09:03:41;;;;;;;75.53;27.90;;;;;;;;;;5094713;28;20751;-44
2022/12/20 09:06:15;;;;;;;68.20;25.40;;;;;;;;;;5094659;28;20569;-46
2022/12/20 09:08:43;;;;;;;71.83;24.80;;;;;;;;;;5094836;28;20186;-45
2022/12/20 09:11:19;;;;;;;65.70;24.23;;;;;;;;;;5095794;28;20230;-44
2022/12/20 09:13:48;;;;;;;71.07;25.40;;;;;;;;;;5078117;28;20206;-44
2022/12/20 09:16:18;;;;;;;70.00;27.27;;;;;;;;;;5095857;28;20206;-48
2022/12/20 09:18:50;;;;;;;61.73;21.90;;;;;;;;;;5094990;28;20175;-44
2022/12/20 09:21:18;;;;;;;59.70;22.53;;;;;;;;;;5095161;28;20230;-43
2022/12/20 09:23:47;;;;;;;78.27;32.30;;;;;;;;;;5095786;28;20554;-46
2022/12/20 09:26:15;;;;;;;69.13;28.67;;;;;;;;;;5094427;28;20209;-47
2022/12/20 09:28:43;;;;;;;78.90;28.50;;;;;;;;;;5094126;28;20202;-46
2022/12/20 09:31:15;;;;;;;95.13;42.90;;;;;;;;;;5094577;28;20271;-43
2022/12/20 09:33:43;;;;;;;68.07;26.37;;;;;;;;;;5095751;28;20232;-46
2022/12/20 09:36:13;;;;;;;68.33;25.37;;;;;;;;;;5095896;28;20529;-45
2022/12/20 09:38:40;;;;;;;74.13;26.23;;;;;;;;;;5095769;28;20256;-44
2022/12/20 09:41:36;;;;;;;73.03;26.80;;;;;;;;;;5095534;28;20194;-44
2022/12/20 09:44:27;;;;;;;63.47;23.60;;;;;;;;;;5095757;28;20213;-44
2022/12/20 09:46:58;;;;;;;67.53;25.57;;;;;;;;;;5095411;28;20227;-44
2022/12/20 09:49:34;;;;;;;88.23;34.00;;;;;;;;;;5094874;28;20218;-43
2022/12/20 09:52:31;;;;;;;83.27;33.40;;;;;;;;;;5095289;28;20293;-44
2022/12/20 09:55:17;;;;;;;64.50;24.30;;;;;;;;;;5095296;28;20272;-43
2022/12/20 09:58:22;;;;;;;88.20;34.43;;;;;;;;;;5095618;28;20317;-46
2022/12/20 10:00:50;;;;;;;82.33;29.53;;;;;;;;;;5093679;28;20673;-44
2022/12/20 10:03:32;;;;;;;92.03;29.80;;;;;;;;;;5094526;28;20305;-44
2022/12/20 10:06:10;;;;;;;77.37;25.90;;;;;;;;;;5095133;28;20210;-44
2022/12/20 10:08:55;;;;;;;76.70;29.03;;;;;;;;;;5094173;28;20195;-44
2022/12/20 10:11:53;;;;;;;80.27;28.27;;;;;;;;;;5095024;28;20224;-44
2022/12/20 10:14:29;;;;;;;68.07;24.87;;;;;;;;;;5095254;28;20195;-45
2022/12/20 10:17:21;;;;;;;90.00;28.90;;;;;;;;;;5095108;28;20202;-44
2022/12/20 10:20:13;;;;;;;65.03;24.13;;;;;;;;;;5094738;28;20238;-44
2022/12/20 10:23:12;;;;;;;73.83;25.40;;;;;;;;;;5094806;28;20260;-43
2022/12/20 10:25:40;;;;;;;62.60;23.03;;;;;;;;;;5095128;28;20191;-45
2022/12/20 10:28:14;;;;;;;70.73;24.93;;;;;;;;;;5093995;28;20199;-44
2022/12/20 10:30:42;;;;;;;70.37;30.13;;;;;;;;;;5093878;28;20217;-44
2022/12/20 10:33:23;;;;;;;72.53;29.53;;;;;;;;;;5094924;28;20210;-44
2022/12/20 10:35:51;;;;;;;78.30;32.77;;;;;;;;;;5094788;28;20222;-44
2022/12/20 10:38:19;;;;;;;65.77;25.90;;;;;;;;;;5094034;28;20264;-43
2022/12/20 10:40:58;;;;;;;75.73;27.57;;;;;;;;;;5094527;28;20199;-45
2022/12/20 10:43:48;;;;;;;77.67;28.40;;;;;;;;;;5093642;28;20671;-44
2022/12/20 10:46:15;;;;;;;72.67;28.90;;;;;;;;;;5094705;28;20191;-43
2022/12/20 10:48:45;;;;;;;95.80;40.50;;;;;;;;;;5094401;28;20202;-43
2022/12/20 10:51:15;;;;;;;78.13;31.73;;;;;;;;;;5093494;28;20643;-44
2022/12/20 10:53:49;;;;;;;68.57;28.00;;;;;;;;;;5094396;28;20218;-43
2022/12/20 10:56:26;;;;;;;70.27;26.80;;;;;;;;;;5094316;28;20643;-44
2022/12/20 10:59:16;;;;;;;88.87;39.23;;;;;;;;;;5094018;28;20213;-46
2022/12/20 11:01:45;;;;;;;79.97;29.70;;;;;;;;;;5085897;28;20232;-44
2022/12/20 11:04:31;;;;;;;77.87;31.77;;;;;;;;;;5092593;28;20226;-44
2022/12/20 11:07:01;;;;;;;88.07;36.07;;;;;;;;;;5093673;28;20199;-46
2022/12/20 11:09:35;;;;;;;89.90;46.10;;;;;;;;;;5093259;28;20210;-45
2022/12/20 11:12:08;;;;;;;92.50;49.33;;;;;;;;;;5094138;28;20202;-43
2022/12/20 11:14:36;;;;;;;85.30;35.60;;;;;;;;;;5093111;28;20826;-44
2022/12/20 11:17:33;;;;;;;74.80;30.20;;;;;;;;;;5094544;28;20550;-44
2022/12/20 11:20:25;;;;;;;73.97;32.13;;;;;;;;;;5094060;28;20231;-43
2022/12/20 11:22:59;;;;;;;69.37;28.90;;;;;;;;;;5094316;28;20207;-44
2022/12/20 11:25:32;;;;;;;72.37;28.80;;;;;;;;;;5094266;28;20259;-44
2022/12/20 11:28:24;;;;;;;70.87;29.40;;;;;;;;;;5094130;28;20207;-45
2022/12/20 11:31:05;;;;;;;62.80;28.53;;;;;;;;;;5093980;28;20508;-44
2022/12/20 11:33:55;;;;;;;64.07;25.80;;;;;;;;;;5093285;28;20213;-43
2022/12/20 11:37:02;;;;;;;64.03;24.70;;;;;;;;;;5093049;28;20202;-43
2022/12/20 11:40:07;;;;;;;63.17;24.53;;;;;;;;;;5092936;28;20219;-44
2022/12/20 11:42:58;;;;;;;62.90;23.33;;;;;;;;;;5093250;28;20567;-45
2022/12/20 11:45:41;;;;;;;75.13;29.10;;;;;;;;;;5093535;28;20202;-44
2022/12/20 11:48:47;;;;;;;68.37;29.10;;;;;;;;;;5093125;28;20187;-44
2022/12/20 11:51:24;;;;;;;65.20;26.87;;;;;;;;;;5093810;28;20230;-45
2022/12/20 11:53:58;;;;;;;70.67;27.20;;;;;;;;;;5092711;28;20521;-44
2022/12/20 11:56:30;;;;;;;72.93;25.93;;;;;;;;;;5092765;28;20183;-44
2022/12/20 11:59:41;;;;;;;67.47;26.03;;;;;;;;;;5091876;28;20191;-44
2022/12/20 12:02:12;;;;;;;64.13;26.27;;;;;;;;;;5085329;28;20224;-45
2022/12/20 12:05:02;;;;;;;63.63;25.67;;;;;;;;;;5093545;28;20196;-44
2022/12/20 12:07:33;;;;;;;71.90;27.07;;;;;;;;;;5093554;28;20661;-44
2022/12/20 12:10:34;;;;;;;63.47;25.20;;;;;;;;;;5092972;28;20191;-43
2022/12/20 12:13:19;;;;;;;61.90;26.30;;;;;;;;;;5092531;28;20260;-44
2022/12/20 12:15:58;;;;;;;60.47;26.43;;;;;;;;;;5092734;28;20195;-44
2022/12/20 12:18:30;;;;;;;57.70;23.60;;;;;;;;;;5093468;28;20285;-44
2022/12/20 12:21:08;;;;;;;57.80;24.63;;;;;;;;;;5091258;28;20562;-46
2022/12/20 12:23:46;;;;;;;62.13;25.67;;;;;;;;;;5092502;28;20532;-47
2022/12/20 12:26:34;;;;;;;66.73;24.70;;;;;;;;;;5092371;28;20199;-43
2022/12/20 12:29:05;;;;;;;62.07;25.50;;;;;;;;;;5097397;28;20248;-43
2022/12/20 12:31:39;;;;;;;74.23;28.57;;;;;;;;;;5097317;28;20593;-43
2022/12/20 12:34:06;;;;;;;71.83;27.10;;;;;;;;;;5097074;28;20320;-45
2022/12/20 12:37:00;;;;;;;62.27;27.17;;;;;;;;;;5096610;28;20214;-44
2022/12/20 12:39:35;;;;;;;65.27;28.60;;;;;;;;;;5078566;28;20206;-43
2022/12/20 12:42:40;;;;;;;66.30;31.07;;;;;;;;;;5096870;28;20205;-43
2022/12/20 12:45:15;;;;;;;62.57;26.40;;;;;;;;;;5096878;28;20226;-43
2022/12/20 12:47:51;;;;;;;63.70;27.23;;;;;;;;;;5096785;28;20570;-43
2022/12/20 12:50:28;;;;;;;58.67;24.60;;;;;;;;;;5094041;28;20206;-44
2022/12/20 12:52:58;;;;;;;62.33;26.57;;;;;;;;;;5095764;28;20255;-44
2022/12/20 12:55:37;;;;;;;69.47;25.43;;;;;;;;;;5095511;28;20234;-45
2022/12/20 12:58:29;;;;;;;58.63;24.50;;;;;;;;;;5096730;28;20572;-44
2022/12/20 13:01:06;;;;;;;60.57;25.40;;;;;;;;;;5091577;28;20199;-48
2022/12/20 13:03:36;;;;;;;64.57;26.37;;;;;;;;;;5096147;28;20562;-46
2022/12/20 13:06:22;;;;;;;56.13;25.23;;;;;;;;;;5095635;28;20280;-45
2022/12/20 13:08:55;;;;;;;55.77;25.13;;;;;;;;;;5096382;28;20202;-45
2022/12/20 13:11:39;;;;;;;58.20;25.20;;;;;;;;;;5095918;28;20222;-45
2022/12/20 13:14:16;;;;;;;55.50;23.67;;;;;;;;;;5095658;28;20195;-45
2022/12/20 13:16:44;;;;;;;58.43;24.03;;;;;;;;;;5095448;28;20627;-48
2022/12/20 13:19:34;;;;;;;56.23;24.00;;;;;;;;;;5094949;28;20226;-46
2022/12/20 13:22:10;;;;;;;52.73;23.33;;;;;;;;;;5093628;28;20252;-46
2022/12/20 13:24:49;;;;;;;55.23;24.10;;;;;;;;;;5094447;28;20264;-46
2022/12/20 13:27:28;;;;;;;62.30;24.53;;;;;;;;;;5095442;28;20563;-45
2022/12/20 13:29:59;;;;;;;49.47;23.30;;;;;;;;;;5093449;28;20186;-46
2022/12/20 13:32:48;;;;;;;53.70;25.43;;;;;;;;;;5094141;28;20287;-46
2022/12/20 13:35:24;;;;;;;57.70;24.10;;;;;;;;;;5095501;28;20183;-47
2022/12/20 13:38:24;;;;;;;51.50;23.47;;;;;;;;;;5095468;28;20193;-46
2022/12/20 13:40:57;;;;;;;57.20;24.67;;;;;;;;;;5089178;28;20238;-46
2022/12/20 13:43:31;;;;;;;64.10;24.23;;;;;;;;;;5092394;28;20300;-46
2022/12/20 13:46:12;;;;;;;52.53;22.70;;;;;;;;;;5093741;28;20238;-48
2022/12/20 13:48:45;;;;;;;52.80;22.57;;;;;;;;;;5093957;28;20218;-45
2022/12/20 13:51:20;;;;;;;52.27;23.07;;;;;;;;;;5094005;28;20280;-46
2022/12/20 13:53:57;;;;;;;55.10;22.60;;;;;;;;;;5094312;28;20233;-46
2022/12/20 13:56:27;;;;;;;59.40;25.00;;;;;;;;;;5094572;28;20187;-47
2022/12/20 13:58:57;;;;;;;68.03;36.00;;;;;;;;;;5094187;28;20612;-46
2022/12/20 14:01:25;;;;;;;56.17;24.93;;;;;;;;;;5094364;28;20191;-46
2022/12/20 14:03:53;;;;;;;50.53;23.17;;;;;;;;;;5094626;28;20329;-46
2022/12/20 14:06:22;;;;;;;48.40;23.60;;;;;;;;;;5094285;28;20209;-46
2022/12/20 14:08:53;;;;;;;50.47;22.10;;;;;;;;;;5094078;28;20191;-46
2022/12/20 14:11:28;;;;;;;55.30;24.70;;;;;;;;;;5086229;28;20215;-46
2022/12/20 14:13:55;;;;;;;55.70;24.67;;;;;;;;;;5093018;28;20225;-46
2022/12/20 14:16:24;;;;;;;56.77;23.97;;;;;;;;;;5093793;28;20620;-46
2022/12/20 14:19:05;;;;;;;56.90;23.77;;;;;;;;;;5093377;28;20229;-46
2022/12/20 14:21:40;;;;;;;53.80;22.80;;;;;;;;;;5093923;28;20242;-50
2022/12/20 14:24:14;;;;;;;55.63;24.97;;;;;;;;;;5077243;28;20242;-51
2022/12/20 14:26:46;;;;;;;55.77;25.60;;;;;;;;;;5081185;28;20225;-45
2022/12/20 14:29:29;;;;;;;58.53;25.23;;;;;;;;;;5092483;28;20244;-45
2022/12/20 14:31:56;;;;;;;55.43;24.13;;;;;;;;;;5092146;28;20211;-44
2022/12/20 14:34:29;;;;;;;61.83;25.67;;;;;;;;;;5092883;28;20326;-43
2022/12/20 14:37:23;;;;;;;59.57;25.27;;;;;;;;;;5090965;28;20214;-44
2022/12/20 14:40:08;;;;;;;56.30;25.83;;;;;;;;;;5089595;28;20219;-44
2022/12/20 14:42:37;;;;;;;67.10;29.67;;;;;;;;;;5090424;28;20532;-47
2022/12/20 14:45:25;;;;;;;62.40;26.73;;;;;;;;;;5090585;28;20548;-45
2022/12/20 14:47:56;;;;;;;54.40;26.53;;;;;;;;;;5089101;28;20291;-46
2022/12/20 14:50:30;;;;;;;61.37;29.73;;;;;;;;;;5092106;28;20214;-45
2022/12/20 14:52:58;;;;;;;58.87;28.87;;;;;;;;;;5092561;28;20234;-45
2022/12/20 14:56:23;;;;;;;61.83;26.02;;;;;;;;;;5091658;28;20416;-45
2022/12/20 14:59:05;;;;;;;55.07;25.20;;;;;;;;;;5047197;28;20703;-46